Time;durP1;ratioP1;P1;durP2;ratioP2;P2;SDS_P1;SDS_P2;PMS_P1;PMS_P2;Temp;Humidity;BMP_temperature;BMP_pressure;BME280_temperature;BME280_humidity;BME280_pressure;Samples;Min_cycle;Max_cycle;Signal;HPM_P1;HPM_P2
2023/10/29 00:02:24;;;;;;;3.40;1.58;;;;;;;11.65;100.00;99117.72;7390080;19;20356;-77
2023/10/29 00:04:52;;;;;;;4.55;1.70;;;;;;;11.64;100.00;99121.41;7386908;19;20361;-76
2023/10/29 00:07:18;;;;;;;5.30;1.70;;;;;;;11.65;100.00;99111.63;7388735;19;20920;-77
2023/10/29 00:09:45;;;;;;;7.38;1.95;;;;;;;11.67;100.00;99105.03;7384969;19;20379;-76
2023/10/29 00:12:12;;;;;;;4.75;1.73;;;;;;;11.66;100.00;99098.09;7391943;19;20361;-76
2023/10/29 00:14:41;;;;;;;5.50;1.80;;;;;;;11.69;100.00;99092.34;7392707;19;20360;-77
2023/10/29 00:17:11;;;;;;;7.35;1.92;;;;;;;11.71;100.00;99078.81;7393084;19;20723;-77
2023/10/29 00:19:38;;;;;;;4.60;1.67;;;;;;;11.70;100.00;99078.03;7394203;19;20373;-77
2023/10/29 00:22:05;;;;;;;4.32;1.83;;;;;;;11.73;100.00;99077.59;7389152;19;20379;-77
2023/10/29 00:24:32;;;;;;;4.38;1.60;;;;;;;11.74;100.00;99067.78;7392816;19;20367;-76
2023/10/29 00:26:58;;;;;;;7.22;1.63;;;;;;;11.75;100.00;99062.25;7387640;19;20341;-77
2023/10/29 00:29:26;;;;;;;4.63;1.92;;;;;;;11.77;100.00;99070.81;7388678;19;20697;-77
2023/10/29 00:31:53;;;;;;;4.85;1.67;;;;;;;11.79;100.00;99076.72;7394568;19;20377;-76
2023/10/29 00:34:20;;;;;;;5.50;1.77;;;;;;;11.82;100.00;99086.06;7390555;19;20389;-77
2023/10/29 00:36:47;;;;;;;4.28;1.70;;;;;;;11.83;100.00;99087.69;7383536;19;20337;-77
2023/10/29 00:39:14;;;;;;;5.80;1.77;;;;;;;11.84;100.00;99089.31;7384569;19;20368;-77
2023/10/29 00:41:41;;;;;;;5.70;1.67;;;;;;;11.85;100.00;99080.28;7390966;19;20363;-76
2023/10/29 00:44:08;;;;;;;5.35;2.17;;;;;;;11.89;100.00;99083.38;7390316;19;20428;-77
2023/10/29 00:46:35;;;;;;;3.40;1.50;;;;;;;11.90;100.00;99071.69;7391497;19;20389;-77
2023/10/29 00:49:02;;;;;;;4.72;1.30;;;;;;;11.90;100.00;99056.56;7389795;19;20386;-77
2023/10/29 00:51:29;;;;;;;4.40;1.50;;;;;;;11.96;100.00;99057.50;7392450;19;20367;-77
2023/10/29 00:53:56;;;;;;;6.30;1.80;;;;;;;11.98;100.00;99055.44;7392527;19;20380;-77
2023/10/29 00:56:23;;;;;;;3.22;1.23;;;;;;;11.99;100.00;99055.22;7392164;19;20371;-77
2023/10/29 00:58:53;;;;;;;2.80;1.40;;;;;;;12.01;100.00;99052.34;7391500;19;20450;-77
2023/10/29 01:01:20;;;;;;;2.90;1.30;;;;;;;12.02;100.00;99048.63;7384358;19;20373;-76
2023/10/29 01:03:48;;;;;;;4.03;1.45;;;;;;;12.02;100.00;99041.47;7391789;19;20372;-76
2023/10/29 01:06:15;;;;;;;2.90;1.40;;;;;;;12.02;100.00;99048.63;7392820;19;20440;-77
2023/10/29 01:08:43;;;;;;;3.33;1.45;;;;;;;12.04;100.00;99036.75;7392783;19;20709;-77
2023/10/29 01:11:10;;;;;;;3.93;1.37;;;;;;;12.05;100.00;99037.56;7391918;19;20482;-77
2023/10/29 01:13:38;;;;;;;4.50;1.50;;;;;;;12.05;100.00;99048.22;7390760;19;20365;-77
2023/10/29 01:16:06;;;;;;;3.25;1.23;;;;;;;12.06;100.00;99039.19;7391890;19;20348;-77
2023/10/29 01:18:33;;;;;;;3.25;1.30;;;;;;;12.07;100.00;99032.84;7391862;19;20368;-77
2023/10/29 01:21:00;;;;;;;4.00;1.67;;;;;;;12.11;100.00;99027.88;7394507;19;20868;-77
2023/10/29 01:23:30;;;;;;;3.83;1.50;;;;;;;12.12;100.00;99025.00;7385919;19;20345;-77
2023/10/29 01:25:58;;;;;;;3.75;1.50;;;;;;;12.16;100.00;99025.38;7393062;19;20353;-77
2023/10/29 01:28:25;;;;;;;6.03;1.38;;;;;;;12.18;100.00;99016.13;7390596;19;20697;-77
2023/10/29 01:30:52;;;;;;;3.72;1.30;;;;;;;12.19;100.00;99022.25;7391846;19;20332;-76
2023/10/29 01:33:19;;;;;;;3.97;1.47;;;;;;;12.21;100.00;99020.97;7388634;19;20433;-77
2023/10/29 01:35:46;;;;;;;3.58;1.30;;;;;;;12.21;100.00;99022.81;7390594;19;20360;-76
2023/10/29 01:38:13;;;;;;;4.05;1.50;;;;;;;12.23;100.00;99008.25;7391345;19;20368;-77
2023/10/29 01:40:40;;;;;;;4.40;1.30;;;;;;;12.24;100.00;99007.25;7391751;19;20762;-77
2023/10/29 01:43:07;;;;;;;4.45;1.80;;;;;;;12.27;100.00;98997.19;7389190;19;20356;-76
2023/10/29 01:45:36;;;;;;;3.17;1.48;;;;;;;12.29;100.00;98989.81;7388951;19;20368;-77
2023/10/29 01:48:03;;;;;;;3.80;1.40;;;;;;;12.30;100.00;98980.78;7389720;19;20389;-76
2023/10/29 01:50:30;;;;;;;3.40;1.38;;;;;;;12.30;100.00;98970.13;7387576;19;20440;-77
2023/10/29 01:52:57;;;;;;;4.55;1.60;;;;;;;12.32;100.00;98978.69;7390225;19;20436;-76
2023/10/29 01:55:24;;;;;;;6.13;1.92;;;;;;;12.33;100.00;98969.69;7391556;19;20420;-76
2023/10/29 01:57:51;;;;;;;3.55;1.13;;;;;;;12.34;100.00;98974.75;7389342;19;20907;-76
2023/10/29 02:00:19;;;;;;;3.20;1.30;;;;;;;12.35;100.00;98959.66;7387602;19;20444;-76
2023/10/29 02:02:47;;;;;;;2.72;1.13;;;;;;;12.35;100.00;98957.78;7389156;19;20364;-77
2023/10/29 02:05:14;;;;;;;3.08;1.30;;;;;;;12.37;100.00;98961.03;7389333;19;20356;-77
2023/10/29 02:07:41;;;;;;;3.00;1.17;;;;;;;12.38;100.00;98956.50;7388350;19;20812;-76
2023/10/29 02:10:08;;;;;;;2.97;1.35;;;;;;;12.39;100.00;98950.16;7383171;19;20731;-77
2023/10/29 02:12:35;;;;;;;3.65;1.27;;;;;;;12.40;100.00;98944.59;7392505;19;20383;-77
2023/10/29 02:15:02;;;;;;;3.97;1.50;;;;;;;12.41;100.00;98940.91;7390457;19;20361;-77
2023/10/29 02:17:28;;;;;;;3.30;1.23;;;;;;;12.41;100.00;98932.94;7389829;19;20398;-77
2023/10/29 02:19:56;;;;;;;4.07;1.37;;;;;;;12.41;100.00;98943.56;7390144;19;20528;-77
2023/10/29 02:22:23;;;;;;;3.95;1.20;;;;;;;12.43;100.00;98930.03;7391393;19;20369;-77
2023/10/29 02:24:50;;;;;;;2.72;1.13;;;;;;;12.45;100.00;98930.59;7392280;19;20666;-77
2023/10/29 02:27:17;;;;;;;2.50;1.17;;;;;;;12.49;100.00;98923.00;7386019;19;20361;-77
2023/10/29 02:29:45;;;;;;;2.53;1.17;;;;;;;12.53;100.00;98924.94;7390813;19;20367;-77
2023/10/29 02:32:12;;;;;;;3.63;1.52;;;;;;;12.56;100.00;98911.22;7390850;19;20393;-78
2023/10/29 02:34:39;;;;;;;2.97;1.50;;;;;;;12.57;100.00;98902.16;7392205;19;20365;-78
2023/10/29 02:37:06;;;;;;;2.53;1.20;;;;;;;12.59;100.00;98899.28;7396775;19;20448;-78
2023/10/29 02:39:32;;;;;;;3.42;1.20;;;;;;;12.54;100.00;98897.31;7397242;19;20345;-78
2023/10/29 02:41:59;;;;;;;3.35;1.23;;;;;;;12.58;100.00;98898.47;7398045;19;20360;-78
2023/10/29 02:44:26;;;;;;;3.33;1.45;;;;;;;12.60;100.00;98895.56;7396986;19;20340;-78
2023/10/29 02:46:53;;;;;;;4.10;1.10;;;;;;;12.57;100.00;98902.16;7393009;19;20364;-77
2023/10/29 02:49:20;;;;;;;3.33;1.13;;;;;;;12.59;100.00;98900.09;7397936;19;20733;-78
2023/10/29 02:51:47;;;;;;;2.50;1.25;;;;;;;12.62;100.00;98888.16;7397073;19;20390;-78
2023/10/29 02:54:14;;;;;;;3.05;1.20;;;;;;;12.62;100.00;98888.16;7399668;19;20451;-78
2023/10/29 02:56:41;;;;;;;3.33;1.05;;;;;;;12.58;100.00;98879.88;7395594;19;20356;-78
2023/10/29 02:59:09;;;;;;;2.58;0.82;;;;;;;12.57;100.00;98891.53;7397511;19;20340;-77
2023/10/29 03:01:36;;;;;;;2.35;1.10;;;;;;;12.58;100.00;98898.47;7392267;19;20369;-78
2023/10/29 03:04:05;;;;;;;2.63;1.05;;;;;;;12.57;100.00;98885.41;7392703;19;20904;-77
2023/10/29 03:06:32;;;;;;;1.93;0.97;;;;;;;12.56;100.00;98879.28;7397809;19;20894;-77
2023/10/29 03:08:59;;;;;;;2.65;1.15;;;;;;;12.55;100.00;98861.69;7397147;19;20360;-77
2023/10/29 03:11:26;;;;;;;1.92;0.85;;;;;;;12.62;100.00;98858.91;7397563;19;20345;-78
2023/10/29 03:13:53;;;;;;;2.63;1.10;;;;;;;12.63;100.00;98863.19;7395216;19;20368;-78
2023/10/29 03:16:20;;;;;;;2.40;1.00;;;;;;;12.61;100.00;98852.78;7395807;19;20369;-77
2023/10/29 03:18:47;;;;;;;3.10;1.00;;;;;;;12.63;100.00;98855.22;7394330;19;20363;-78
2023/10/29 03:21:16;;;;;;;2.63;0.90;;;;;;;12.65;100.00;98847.81;7395568;19;20352;-78
2023/10/29 03:23:43;;;;;;;2.28;1.08;;;;;;;12.65;100.00;98834.50;7393904;19;20488;-77
2023/10/29 03:26:10;;;;;;;1.90;0.90;;;;;;;12.64;100.00;98812.44;7398064;19;20356;-77
2023/10/29 03:28:39;;;;;;;2.35;0.80;;;;;;;12.63;100.00;98818.78;7396340;19;20373;-78
2023/10/29 03:31:24;;;;;;;2.45;0.77;;;;;;;12.63;100.00;98821.44;7394409;19;20797;-78
2023/10/29 03:33:51;;;;;;;3.25;0.90;;;;;;;12.66;100.00;98814.84;7395877;19;20388;-78
2023/10/29 03:36:18;;;;;;;2.85;0.85;;;;;;;12.63;100.00;98818.78;7394346;19;20415;-78
2023/10/29 03:38:45;;;;;;;1.67;0.73;;;;;;;12.66;100.00;98812.19;7393870;19;20375;-77
2023/10/29 03:41:20;;;;;;;2.92;0.90;;;;;;;12.70;100.00;98808.00;7397612;19;20908;-78
2023/10/29 03:43:48;;;;;;;2.35;0.85;;;;;;;12.72;100.00;98818.41;7393447;19;20359;-77
2023/10/29 03:46:15;;;;;;;2.53;0.88;;;;;;;12.73;100.00;98815.53;7393519;19;20930;-78
2023/10/29 03:48:44;;;;;;;2.17;0.80;;;;;;;12.81;100.00;98814.34;7395120;19;20456;-77
2023/10/29 03:51:12;;;;;;;2.28;0.80;;;;;;;12.83;100.00;98809.59;7393957;19;20439;-78
2023/10/29 03:53:40;;;;;;;2.78;1.05;;;;;;;12.86;100.00;98814.47;7393828;19;20381;-77
2023/10/29 03:56:08;;;;;;;2.53;1.02;;;;;;;12.91;100.00;98816.41;7392686;19;20393;-78
2023/10/29 03:58:35;;;;;;;2.45;0.88;;;;;;;12.91;99.83;98806.56;7398259;19;20333;-78
2023/10/29 04:01:02;;;;;;;1.13;0.50;;;;;;;12.93;99.74;98809.81;7392717;19;20378;-77
2023/10/29 04:03:30;;;;;;;2.90;0.80;;;;;;;12.96;99.32;98803.19;7393623;19;21219;-77
2023/10/29 04:05:57;;;;;;;3.10;0.80;;;;;;;12.99;99.17;98789.44;7395684;19;20356;-77
2023/10/29 04:08:25;;;;;;;2.75;1.02;;;;;;;13.03;98.93;98775.41;7389368;19;20352;-77
2023/10/29 04:10:52;;;;;;;2.17;0.80;;;;;;;13.01;98.27;98766.84;7390153;19;20385;-76
2023/10/29 04:13:18;;;;;;;2.63;0.95;;;;;;;13.06;97.74;98766.91;7392660;19;20424;-78
2023/10/29 04:15:46;;;;;;;2.22;0.80;;;;;;;13.14;97.66;98765.75;7395448;19;20369;-77
2023/10/29 04:18:13;;;;;;;3.72;0.80;;;;;;;13.22;97.21;98785.84;7393038;19;20400;-77
2023/10/29 04:20:40;;;;;;;3.13;1.10;;;;;;;13.24;96.82;98783.75;7394825;19;20345;-77
2023/10/29 04:23:07;;;;;;;2.95;0.70;;;;;;;13.29;96.70;98765.22;7395343;19;20375;-76
2023/10/29 04:25:34;;;;;;;3.53;0.70;;;;;;;13.31;96.46;98768.47;7393660;19;20742;-77
2023/10/29 04:28:01;;;;;;;2.20;0.60;;;;;;;13.32;96.45;98769.25;7391902;19;20407;-77
2023/10/29 04:30:28;;;;;;;2.47;0.90;;;;;;;13.32;95.90;98775.41;7392457;19;20903;-77
2023/10/29 04:32:55;;;;;;;2.33;0.73;;;;;;;13.35;95.95;98769.59;7394055;19;20667;-77
2023/10/29 04:35:21;;;;;;;3.47;0.93;;;;;;;13.34;95.64;98767.97;7392621;19;20345;-78
2023/10/29 04:37:48;;;;;;;2.13;0.70;;;;;;;13.37;95.40;98756.84;7396311;19;20672;-77
2023/10/29 04:40:15;;;;;;;3.25;0.90;;;;;;;13.38;95.11;98761.13;7395301;19;20357;-77
2023/10/29 04:42:42;;;;;;;2.85;0.75;;;;;;;13.41;95.14;98768.66;7394156;19;20353;-76
2023/10/29 04:45:11;;;;;;;1.90;0.70;;;;;;;13.41;94.89;98760.66;7394100;19;20444;-77
2023/10/29 04:47:38;;;;;;;3.70;0.85;;;;;;;13.44;94.94;98746.84;7388051;19;20870;-77
2023/10/29 04:50:06;;;;;;;2.45;0.88;;;;;;;13.43;94.21;98744.41;7392966;19;20332;-76
2023/10/29 04:52:33;;;;;;;4.65;1.30;;;;;;;13.48;93.98;98743.72;7390424;19;20364;-77
2023/10/29 04:55:01;;;;;;;2.42;0.85;;;;;;;13.51;93.98;98741.34;7396283;19;20362;-77
2023/10/29 04:57:29;;;;;;;3.10;0.80;;;;;;;13.49;93.92;98737.31;7392208;19;20391;-77
2023/10/29 04:59:56;;;;;;;4.32;0.88;;;;;;;13.52;93.80;98731.53;7391974;19;20802;-76
2023/10/29 05:02:23;;;;;;;3.33;0.90;;;;;;;13.53;93.58;98720.59;7388094;19;20393;-77
2023/10/29 05:04:53;;;;;;;2.05;0.77;;;;;;;13.54;93.97;98703.59;7389174;19;20379;-76
2023/10/29 05:07:20;;;;;;;2.67;1.03;;;;;;;13.54;93.53;98708.13;7389244;19;20697;-77
2023/10/29 05:09:47;;;;;;;2.97;0.75;;;;;;;13.52;93.42;98710.22;7392028;19;20340;-76
2023/10/29 05:12:14;;;;;;;2.10;0.80;;;;;;;13.53;93.46;98707.28;7393732;19;20448;-77
2023/10/29 05:14:41;;;;;;;2.15;0.75;;;;;;;13.55;93.57;98717.72;7394381;19;20360;-76
2023/10/29 05:17:08;;;;;;;3.88;0.90;;;;;;;13.53;93.60;98695.84;7391011;19;20345;-76
2023/10/29 05:19:35;;;;;;;2.50;0.88;;;;;;;13.49;93.86;98705.34;7392383;19;20353;-76
2023/10/29 05:22:02;;;;;;;4.82;1.15;;;;;;;13.51;93.77;98711.25;7391951;19;20360;-76
2023/10/29 05:24:30;;;;;;;3.63;0.90;;;;;;;13.47;93.80;98713.59;7389783;19;20360;-76
2023/10/29 05:26:57;;;;;;;2.47;0.55;;;;;;;13.52;93.70;98707.56;7389871;19;20908;-76
2023/10/29 05:29:26;;;;;;;2.35;0.80;;;;;;;13.49;93.77;98706.16;7392783;19;20332;-76
2023/10/29 05:31:53;;;;;;;2.53;0.70;;;;;;;13.46;93.56;98723.44;7389833;19;20340;-76
2023/10/29 05:34:20;;;;;;;2.27;0.73;;;;;;;13.50;93.65;98728.31;7392281;19;20884;-76
2023/10/29 05:36:47;;;;;;;2.42;0.65;;;;;;;13.46;93.43;98717.31;7392352;19;20364;-77
2023/10/29 05:39:16;;;;;;;1.77;0.80;;;;;;;13.45;93.45;98719.19;7385125;19;20368;-77
2023/10/29 05:41:43;;;;;;;2.00;0.70;;;;;;;13.47;93.61;98710.91;7392109;19;20381;-76
2023/10/29 05:44:10;;;;;;;2.17;0.70;;;;;;;13.48;93.59;98725.88;7381558;19;20455;-76
2023/10/29 05:46:37;;;;;;;3.00;0.70;;;;;;;13.43;93.49;98745.25;7377465;19;20868;-76
2023/10/29 05:49:04;;;;;;;1.97;0.70;;;;;;;13.41;93.73;98744.69;7380034;19;21338;-76
2023/10/29 05:51:31;;;;;;;3.63;0.68;;;;;;;13.49;93.59;98750.66;7384317;19;20408;-76
2023/10/29 05:53:57;;;;;;;2.20;0.60;;;;;;;13.43;93.71;98731.94;7383152;19;20429;-76
2023/10/29 05:56:24;;;;;;;2.38;0.70;;;;;;;13.46;93.51;98728.75;7388428;19;20840;-76
2023/10/29 05:58:51;;;;;;;2.25;0.73;;;;;;;13.42;93.83;98743.63;7385815;19;20388;-76
2023/10/29 06:01:18;;;;;;;2.47;0.80;;;;;;;13.46;93.77;98728.75;7387089;19;20352;-77
2023/10/29 06:03:45;;;;;;;3.30;0.80;;;;;;;13.43;93.78;98710.63;7388878;19;20375;-76
2023/10/29 06:06:12;;;;;;;2.60;0.80;;;;;;;13.43;93.76;98726.59;7389204;19;20340;-76
2023/10/29 06:08:39;;;;;;;2.47;0.80;;;;;;;13.42;93.71;98748.94;7389210;19;20446;-77
2023/10/29 06:11:06;;;;;;;2.58;0.68;;;;;;;13.43;93.84;98761.22;7399580;19;20328;-77
2023/10/29 06:13:33;;;;;;;2.25;0.98;;;;;;;13.45;93.66;98753.81;7398096;19;20367;-76
2023/10/29 06:15:59;;;;;;;2.80;0.80;;;;;;;13.48;93.68;98757.84;7393223;19;20356;-77
2023/10/29 06:18:27;;;;;;;2.78;0.70;;;;;;;13.49;93.51;98767.41;7396366;19;20372;-77
2023/10/29 06:20:54;;;;;;;3.20;0.90;;;;;;;13.51;93.49;98757.34;7396892;19;20797;-76
2023/10/29 06:23:21;;;;;;;2.08;0.77;;;;;;;13.55;93.65;98752.34;7395472;19;20389;-76
2023/10/29 06:25:48;;;;;;;2.35;0.80;;;;;;;13.57;92.96;98739.59;7398243;19;20340;-76
2023/10/29 06:28:14;;;;;;;2.20;0.90;;;;;;;13.64;92.81;98750.88;7397180;19;20360;-77
2023/10/29 06:30:41;;;;;;;2.20;0.70;;;;;;;13.68;92.54;98748.53;7397696;19;20370;-77
2023/10/29 06:33:08;;;;;;;3.20;1.00;;;;;;;13.70;92.23;98752.56;7395909;19;20916;-77
2023/10/29 06:35:35;;;;;;;2.15;0.98;;;;;;;13.76;92.05;98748.94;7393281;19;20348;-76
2023/10/29 06:38:02;;;;;;;2.08;0.65;;;;;;;13.81;91.84;98762.38;7398000;19;20372;-76
2023/10/29 06:40:29;;;;;;;2.72;0.80;;;;;;;13.83;91.75;98776.25;7396411;19;20336;-76
2023/10/29 06:42:56;;;;;;;2.70;0.90;;;;;;;13.85;91.65;98790.13;7394305;19;20906;-77
2023/10/29 06:45:23;;;;;;;2.25;1.00;;;;;;;13.92;91.56;98773.16;7394851;19;20365;-77
2023/10/29 06:47:50;;;;;;;2.05;1.10;;;;;;;13.91;91.10;98782.22;7395888;19;20355;-76
2023/10/29 06:50:17;;;;;;;2.08;0.80;;;;;;;13.95;90.94;98784.16;7395829;19;20352;-77
2023/10/29 06:52:44;;;;;;;2.63;0.90;;;;;;;13.96;90.59;98784.94;7398860;19;20344;-77
2023/10/29 06:55:12;;;;;;;2.58;0.90;;;;;;;13.98;90.68;98777.50;7395192;19;20904;-75
2023/10/29 06:57:39;;;;;;;3.10;0.95;;;;;;;14.02;90.57;98783.97;7394269;19;20399;-76
2023/10/29 07:00:07;;;;;;;2.83;1.02;;;;;;;14.02;90.32;98775.97;7391377;19;20372;-76
2023/10/29 07:02:35;;;;;;;2.35;0.95;;;;;;;14.07;90.29;98787.53;7395450;19;20364;-76
2023/10/29 07:05:03;;;;;;;2.38;0.95;;;;;;;14.03;90.09;98781.06;7396213;19;20371;-75
2023/10/29 07:07:30;;;;;;;2.75;1.00;;;;;;;14.06;90.13;98761.09;7389761;19;20361;-76
2023/10/29 07:09:57;;;;;;;2.95;0.95;;;;;;;14.07;89.94;98779.53;7392006;19;20950;-76
2023/10/29 07:12:24;;;;;;;3.00;0.93;;;;;;;14.08;89.79;98789.13;7399055;19;20404;-76
2023/10/29 07:14:51;;;;;;;3.05;1.00;;;;;;;14.12;89.75;98786.78;7396008;19;20904;-77
2023/10/29 07:17:18;;;;;;;2.88;0.90;;;;;;;14.15;89.64;98767.63;7392370;19;20695;-76
2023/10/29 07:19:46;;;;;;;3.33;1.00;;;;;;;14.15;88.71;98772.94;7397712;19;20435;-77
2023/10/29 07:22:14;;;;;;;2.67;0.88;;;;;;;14.21;88.90;98769.31;7397371;19;20708;-76
2023/10/29 07:24:40;;;;;;;3.15;0.80;;;;;;;14.29;88.70;98768.09;7395338;19;20350;-77
2023/10/29 07:27:07;;;;;;;4.13;1.00;;;;;;;14.30;88.36;98775.03;7399004;19;20375;-76
2023/10/29 07:29:34;;;;;;;2.92;0.75;;;;;;;14.34;88.29;98780.69;7397410;19;20345;-77
2023/10/29 07:32:01;;;;;;;4.37;1.07;;;;;;;14.36;87.84;98775.91;7397878;19;20407;-76
2023/10/29 07:34:28;;;;;;;3.95;1.00;;;;;;;14.46;87.64;98789.38;7391035;19;20375;-77
2023/10/29 07:36:55;;;;;;;2.85;1.00;;;;;;;14.45;87.34;98782.41;7397956;19;20360;-77
2023/10/29 07:39:22;;;;;;;3.65;1.10;;;;;;;14.46;86.77;98771.50;7399537;19;20356;-77
2023/10/29 07:41:49;;;;;;;2.78;0.85;;;;;;;14.53;86.66;98779.31;7397648;19;20329;-77
2023/10/29 07:44:16;;;;;;;2.40;0.83;;;;;;;14.53;86.17;98774.00;7402424;19;20379;-84
2023/10/29 07:46:43;;;;;;;2.35;0.82;;;;;;;14.56;86.00;98786.88;7406149;19;20361;-84
2023/10/29 07:49:09;;;;;;;2.55;0.98;;;;;;;14.61;86.05;98786.13;7401664;19;20471;-83
2023/10/29 07:51:36;;;;;;;2.65;1.10;;;;;;;14.62;85.66;98777.91;7398813;19;20963;-86
2023/10/29 07:54:03;;;;;;;3.17;0.98;;;;;;;14.62;85.58;98783.22;7401512;19;21014;-85
2023/10/29 07:56:30;;;;;;;3.30;0.95;;;;;;;14.62;85.64;98779.72;7400762;19;20426;-85
2023/10/29 07:58:57;;;;;;;2.90;0.80;;;;;;;14.63;85.52;98787.50;7389679;19;20369;-84
2023/10/29 08:01:24;;;;;;;2.05;0.80;;;;;;;14.67;85.64;98785.16;7378030;19;20361;-84
2023/10/29 08:03:51;;;;;;;2.30;1.08;;;;;;;14.67;85.52;98766.47;7389277;19;20824;-85
2023/10/29 08:06:19;;;;;;;2.70;1.00;;;;;;;14.65;85.27;98793.41;7386679;19;20387;-85
2023/10/29 08:08:46;;;;;;;2.20;0.70;;;;;;;14.62;84.76;98793.91;7390297;19;20908;-85
2023/10/29 08:11:20;;;;;;;2.03;0.70;;;;;;;14.64;85.00;98791.78;7392903;19;21086;-86
2023/10/29 08:13:47;;;;;;;2.03;0.93;;;;;;;14.66;84.62;98788.84;7393571;19;20345;-84
2023/10/29 08:16:14;;;;;;;2.35;0.80;;;;;;;14.73;84.58;98788.66;7400689;19;20737;-86
2023/10/29 08:18:41;;;;;;;2.45;0.70;;;;;;;14.72;84.29;98795.06;7400403;19;20349;-85
2023/10/29 08:21:08;;;;;;;2.45;0.80;;;;;;;14.73;84.05;98800.16;7395503;19;20387;-84
2023/10/29 08:23:35;;;;;;;3.20;1.00;;;;;;;14.80;83.81;98802.66;7399229;19;20441;-85
2023/10/29 08:26:03;;;;;;;3.92;0.77;;;;;;;14.84;83.74;98793.88;7389914;19;20445;-84
2023/10/29 08:28:30;;;;;;;2.97;0.87;;;;;;;14.91;83.34;98790.22;7398789;19;20344;-85
2023/10/29 08:30:58;;;;;;;3.90;0.93;;;;;;;14.98;83.25;98802.34;7397941;19;20353;-84
2023/10/29 08:33:26;;;;;;;3.40;0.90;;;;;;;14.98;82.84;98806.84;7406052;19;20404;-84
2023/10/29 08:35:53;;;;;;;2.67;0.90;;;;;;;15.04;82.56;98790.63;7407376;19;21793;-84
2023/10/29 08:38:20;;;;;;;3.33;0.90;;;;;;;15.02;82.13;98786.59;7400410;19;20951;-85
2023/10/29 08:40:47;;;;;;;2.47;1.20;;;;;;;15.05;81.98;98802.94;7398936;19;20357;-84
2023/10/29 08:43:14;;;;;;;5.35;0.98;;;;;;;15.14;81.89;98794.47;7393161;19;20377;-84
2023/10/29 08:45:41;;;;;;;2.03;0.88;;;;;;;15.18;81.52;98800.94;7398934;19;20356;-86
2023/10/29 08:48:10;;;;;;;2.72;0.93;;;;;;;15.22;81.36;98799.38;7399951;19;20380;-86
2023/10/29 08:50:38;;;;;;;3.22;0.90;;;;;;;15.28;81.20;98795.69;7400052;19;20364;-84
2023/10/29 08:53:05;;;;;;;2.40;0.90;;;;;;;15.31;80.92;98797.06;7394981;19;20357;-86
2023/10/29 08:55:35;;;;;;;3.35;0.90;;;;;;;15.37;80.54;98799.53;7398262;19;20724;-85
2023/10/29 08:58:02;;;;;;;2.47;0.88;;;;;;;15.43;79.85;98805.72;7397440;19;20360;-85
2023/10/29 09:00:29;;;;;;;4.15;0.80;;;;;;;15.45;79.50;98801.75;7395897;19;20364;-88
2023/10/29 09:03:15;;;;;;;1.75;0.70;;;;;;;15.50;78.93;98799.09;7390989;19;20360;-87
2023/10/29 09:05:42;;;;;;;3.63;1.00;;;;;;;15.61;79.77;98810.69;7392911;19;20333;-85
2023/10/29 09:08:10;;;;;;;2.38;0.90;;;;;;;15.65;79.34;98816.34;7396249;19;20349;-85
2023/10/29 09:10:42;;;;;;;2.15;0.93;;;;;;;15.65;79.07;98835.03;7397830;19;20392;-87
2023/10/29 09:13:09;;;;;;;2.35;0.90;;;;;;;15.72;78.75;98838.34;7398150;19;20713;-84
2023/10/29 09:15:37;;;;;;;2.35;0.68;;;;;;;15.84;78.64;98840.84;7395592;19;20376;-86
2023/10/29 09:18:04;;;;;;;2.42;0.98;;;;;;;16.04;78.00;98854.38;7398219;19;20380;-85
2023/10/29 09:20:32;;;;;;;2.30;0.70;;;;;;;16.26;77.13;98859.63;7393345;19;20690;-86
2023/10/29 09:22:59;;;;;;;2.70;0.80;;;;;;;16.60;77.38;98870.00;7397770;19;20376;-82
2023/10/29 09:25:25;;;;;;;2.05;0.77;;;;;;;16.78;75.57;98878.66;7394216;19;20368;-83
2023/10/29 09:27:53;;;;;;;3.63;0.90;;;;;;;16.97;75.03;98879.06;7392704;19;20372;-83
2023/10/29 09:30:19;;;;;;;2.42;0.82;;;;;;;17.16;74.44;98880.19;7395045;19;20365;-85
2023/10/29 09:32:46;;;;;;;4.80;0.80;;;;;;;17.21;72.53;98868.69;7394654;19;20356;-85
2023/10/29 09:35:14;;;;;;;2.38;0.85;;;;;;;17.34;71.79;98892.34;7399491;19;20353;-83
2023/10/29 09:37:40;;;;;;;2.38;0.70;;;;;;;17.41;71.32;98868.75;7391516;19;20396;-86
2023/10/29 09:40:09;;;;;;;1.52;0.50;;;;;;;17.62;71.98;98882.22;7399555;19;20360;-84
2023/10/29 09:42:40;;;;;;;3.15;0.70;;;;;;;17.69;71.09;98875.50;7397544;19;20365;-86
2023/10/29 09:45:09;;;;;;;2.30;0.60;;;;;;;17.75;70.21;98865.59;7392081;19;20371;-85
2023/10/29 09:47:36;;;;;;;1.48;0.60;;;;;;;17.70;69.82;98881.66;7393396;19;20918;-85
2023/10/29 09:50:04;;;;;;;2.17;0.55;;;;;;;17.67;69.79;98885.69;7397090;19;20373;-85
2023/10/29 09:52:33;;;;;;;2.40;0.40;;;;;;;17.60;70.42;98897.75;7395319;19;20364;-83
2023/10/29 09:55:01;;;;;;;2.47;0.40;;;;;;;17.48;70.14;98890.75;7398482;19;20707;-86
2023/10/29 09:57:28;;;;;;;1.77;0.68;;;;;;;17.53;71.10;98893.47;7393460;19;20352;-85
2023/10/29 09:59:54;;;;;;;1.15;0.50;;;;;;;17.53;71.03;98898.00;7395945;19;20359;-84
2023/10/29 10:02:22;;;;;;;1.65;0.52;;;;;;;17.43;70.69;98922.91;7393348;19;20381;-85
2023/10/29 10:04:51;;;;;;;1.23;0.50;;;;;;;17.32;70.83;98907.88;7392355;19;20376;-86
2023/10/29 10:07:19;;;;;;;1.90;0.60;;;;;;;17.29;71.12;98909.19;7395794;19;20335;-85
2023/10/29 10:09:55;;;;;;;2.67;0.57;;;;;;;17.31;71.05;98911.59;7397010;19;20374;-85
2023/10/29 10:12:24;;;;;;;2.08;0.77;;;;;;;17.31;71.12;98914.28;7398206;19;20739;-84
2023/10/29 10:14:52;;;;;;;2.75;0.75;;;;;;;17.39;70.87;98910.31;7392603;19;20416;-86
2023/10/29 10:17:19;;;;;;;2.38;0.70;;;;;;;17.33;71.12;98928.22;7392373;19;20369;-85
2023/10/29 10:19:46;;;;;;;2.05;0.60;;;;;;;17.43;71.54;98924.78;7396884;19;20361;-84
2023/10/29 10:22:34;;;;;;;2.23;0.57;;;;;;;17.41;71.48;98927.72;7393437;19;20869;-85
2023/10/29 10:25:01;;;;;;;1.45;0.45;;;;;;;17.32;70.84;98918.59;7397311;19;20371;-86
2023/10/29 10:27:28;;;;;;;2.10;0.68;;;;;;;17.36;71.55;98911.63;7392930;19;20404;-85
2023/10/29 10:29:55;;;;;;;1.02;0.50;;;;;;;17.30;71.16;98915.38;7397172;19;20387;-86
2023/10/29 10:32:24;;;;;;;1.58;0.52;;;;;;;17.26;71.72;98935.72;7396723;19;21062;-86
2023/10/29 10:34:52;;;;;;;1.13;0.40;;;;;;;17.23;72.07;98925.50;7395735;19;20452;-84
2023/10/29 10:37:19;;;;;;;1.83;0.63;;;;;;;17.23;71.78;98933.53;7394604;19;20745;-85
2023/10/29 10:39:45;;;;;;;1.40;0.40;;;;;;;17.19;72.31;98930.59;7392915;19;20372;-86
2023/10/29 10:42:25;;;;;;;2.25;0.70;;;;;;;17.20;72.25;98932.19;7392785;19;20344;-86
2023/10/29 10:44:54;;;;;;;1.60;0.50;;;;;;;17.23;72.43;98933.53;7414027;19;20360;-85
2023/10/29 10:47:21;;;;;;;1.73;0.50;;;;;;;17.18;71.61;98936.22;7412312;19;20496;-86
2023/10/29 10:49:49;;;;;;;2.08;0.50;;;;;;;17.16;71.55;98933.00;7405449;19;20670;-87
2023/10/29 10:52:17;;;;;;;1.10;0.40;;;;;;;17.11;72.18;98931.09;7388951;19;20409;-85
2023/10/29 10:54:45;;;;;;;2.03;0.55;;;;;;;17.18;72.48;98936.22;7390977;19;20404;-84
2023/10/29 10:57:12;;;;;;;1.02;0.40;;;;;;;17.20;72.22;98915.31;7397936;19;20373;-85
2023/10/29 10:59:40;;;;;;;2.00;0.60;;;;;;;17.22;71.95;98913.19;7401004;19;20420;-86
2023/10/29 11:02:10;;;;;;;1.38;0.52;;;;;;;17.21;71.79;98911.56;7398913;19;20357;-85
2023/10/29 11:04:38;;;;;;;2.67;0.50;;;;;;;17.21;72.05;98900.84;7400233;19;20451;-86
2023/10/29 11:07:06;;;;;;;1.20;0.45;;;;;;;17.14;70.89;98906.44;7403418;19;20682;-86
2023/10/29 11:09:32;;;;;;;1.38;0.40;;;;;;;17.21;71.56;98900.84;7399194;19;20459;-85
2023/10/29 11:11:59;;;;;;;1.40;0.50;;;;;;;17.17;71.18;98911.31;7401308;19;20880;-84
2023/10/29 11:14:26;;;;;;;1.10;0.40;;;;;;;17.19;71.42;98892.25;7402689;19;20347;-84
2023/10/29 11:16:55;;;;;;;2.40;0.90;;;;;;;17.24;71.37;98894.97;7397495;19;20402;-85
2023/10/29 11:19:44;;;;;;;2.33;0.60;;;;;;;17.20;70.93;98912.66;7399282;19;21307;-84
2023/10/29 11:22:22;;;;;;;1.65;0.43;;;;;;;17.35;70.77;98927.97;7401363;19;20365;-85
2023/10/29 11:25:14;;;;;;;1.77;0.50;;;;;;;17.48;70.35;98922.91;7402176;19;20336;-85
2023/10/29 11:27:46;;;;;;;1.90;0.50;;;;;;;17.57;70.36;98915.16;7397907;19;20367;-84
2023/10/29 11:30:15;;;;;;;2.40;0.60;;;;;;;17.49;69.25;98927.22;7400218;19;20365;-85
2023/10/29 11:32:43;;;;;;;1.50;0.40;;;;;;;17.62;69.74;98930.47;7402522;19;20910;-84
2023/10/29 11:35:24;;;;;;;2.08;0.45;;;;;;;17.71;68.74;98936.94;7398069;19;20769;-86